createdAt,value
2019-05-19T00:01:52.258Z,3.93
2019-05-19T00:04:22.503Z,3.97
2019-05-19T00:06:52.703Z,3.70
2019-05-19T00:09:22.894Z,5.03
2019-05-19T00:11:53.118Z,4.77
2019-05-19T00:14:23.378Z,4.67
2019-05-19T00:16:53.591Z,3.90
2019-05-19T00:19:26.789Z,3.97
2019-05-19T00:21:55.729Z,4.40
2019-05-19T00:24:25.960Z,4.00
2019-05-19T00:26:56.335Z,3.80
2019-05-19T00:29:26.544Z,4.33
2019-05-19T00:31:56.761Z,3.93
2019-05-19T00:34:26.974Z,3.75
2019-05-19T00:36:57.202Z,4.73
2019-05-19T00:39:27.418Z,3.95
2019-05-19T00:41:57.628Z,3.50
2019-05-19T00:44:27.853Z,3.63
2019-05-19T00:46:58.091Z,3.80
2019-05-19T00:49:40.656Z,3.10
2019-05-19T00:52:00.299Z,4.00
2019-05-19T00:54:30.517Z,4.03
2019-05-19T00:57:02.941Z,4.23
2019-05-19T00:59:34.296Z,4.60
2019-05-19T01:02:04.766Z,4.47
2019-05-19T01:04:34.981Z,4.17
2019-05-19T01:07:05.301Z,4.30
2019-05-19T01:09:38.417Z,3.50
2019-05-19T01:12:08.679Z,4.00
2019-05-19T01:14:39.143Z,4.10
2019-05-19T01:17:09.393Z,5.03
2019-05-19T01:19:40.175Z,4.83
2019-05-19T01:22:10.725Z,5.00
2019-05-19T01:24:40.955Z,5.70
2019-05-19T01:27:11.163Z,5.37
2019-05-19T01:29:41.463Z,5.25
2019-05-19T01:32:11.958Z,4.80
2019-05-19T01:34:42.183Z,4.67
2019-05-19T01:37:12.372Z,4.47
2019-05-19T01:39:43.068Z,5.00
2019-05-19T01:42:13.266Z,4.93
2019-05-19T01:44:43.510Z,5.20
2019-05-19T01:47:13.717Z,5.17
2019-05-19T01:49:43.981Z,4.47
2019-05-19T01:52:14.179Z,4.63
2019-05-19T01:54:44.595Z,4.97
2019-05-19T01:57:14.795Z,4.80
2019-05-19T01:59:45.022Z,4.70
2019-05-19T02:02:15.275Z,4.53
2019-05-19T02:04:45.518Z,4.67
2019-05-19T02:07:15.729Z,4.33
2019-05-19T02:09:46.047Z,5.20
2019-05-19T02:12:16.267Z,4.50
2019-05-19T02:14:46.469Z,5.28
2019-05-19T02:17:16.697Z,5.43
2019-05-19T02:19:49.329Z,5.87
2019-05-19T02:22:20.537Z,5.22
2019-05-19T02:24:50.739Z,5.60
2019-05-19T02:27:20.933Z,5.30
2019-05-19T02:29:51.132Z,5.47
2019-05-19T02:32:21.374Z,4.63
2019-05-19T02:34:51.608Z,4.95
2019-05-19T02:37:21.822Z,5.77
2019-05-19T02:39:52.102Z,5.73
2019-05-19T02:42:22.944Z,5.07
2019-05-19T02:44:54.411Z,5.80
2019-05-19T02:47:26.275Z,5.67
2019-05-19T02:49:57.825Z,5.80
2019-05-19T02:52:28.859Z,6.10
2019-05-19T02:55:01.745Z,5.70
2019-05-19T02:57:33.761Z,6.20
2019-05-19T03:00:08.302Z,5.97
2019-05-19T03:02:38.501Z,5.07
2019-05-19T03:05:08.808Z,5.10
2019-05-19T03:07:39.010Z,5.53
2019-05-19T03:10:09.475Z,5.67
2019-05-19T03:12:39.696Z,6.17
2019-05-19T03:15:10.158Z,5.50
2019-05-19T03:17:40.354Z,5.20
2019-05-19T03:20:10.907Z,5.35
2019-05-19T03:22:41.125Z,5.83
2019-05-19T03:25:11.572Z,5.40
2019-05-19T03:27:41.773Z,5.70
2019-05-19T03:30:32.830Z,5.67
2019-05-19T03:33:04.685Z,5.80
2019-05-19T03:35:34.898Z,5.53
2019-05-19T03:38:05.263Z,6.33
2019-05-19T03:40:35.572Z,5.92
2019-05-19T03:43:05.785Z,5.90
2019-05-19T03:45:36.034Z,5.53
2019-05-19T03:48:06.491Z,5.43
2019-05-19T03:50:36.703Z,5.23
2019-05-19T03:53:06.924Z,5.60
2019-05-19T03:55:37.619Z,5.63
2019-05-19T03:58:07.821Z,5.23
2019-05-19T04:00:38.045Z,5.53
2019-05-19T04:03:08.273Z,5.70
2019-05-19T04:05:38.508Z,6.17
2019-05-19T04:08:08.710Z,6.27
2019-05-19T04:10:38.933Z,5.30
2019-05-19T04:13:09.144Z,5.50
2019-05-19T04:15:39.412Z,5.73
2019-05-19T04:18:09.663Z,5.90
2019-05-19T04:20:39.869Z,6.47
2019-05-19T04:23:10.068Z,6.30
2019-05-19T04:25:40.280Z,5.43
2019-05-19T04:28:10.502Z,6.40
2019-05-19T04:30:40.710Z,6.63
2019-05-19T04:33:10.982Z,6.03
2019-05-19T04:35:41.276Z,6.37
2019-05-19T04:38:11.524Z,5.67
2019-05-19T04:40:43.065Z,5.73
2019-05-19T04:43:13.287Z,5.80
2019-05-19T04:45:43.510Z,6.70
2019-05-19T04:48:13.724Z,5.87
2019-05-19T04:50:43.932Z,6.30
2019-05-19T04:53:14.160Z,6.23
2019-05-19T04:55:44.365Z,6.10
2019-05-19T04:58:14.641Z,6.60
2019-05-19T05:00:44.854Z,6.23
2019-05-19T05:03:15.080Z,5.90
2019-05-19T05:05:45.304Z,6.10
2019-05-19T05:08:28.761Z,6.93
2019-05-19T05:10:47.421Z,5.90
2019-05-19T05:13:17.627Z,6.53
2019-05-19T05:15:48.233Z,6.57
2019-05-19T05:18:18.422Z,6.90
2019-05-19T05:20:48.619Z,6.37
2019-05-19T05:23:18.839Z,7.17
2019-05-19T05:25:49.116Z,6.80
2019-05-19T05:28:19.347Z,6.20
2019-05-19T05:30:49.559Z,7.10
2019-05-19T05:33:20.760Z,6.65
2019-05-19T05:35:50.969Z,7.10
2019-05-19T05:38:21.207Z,6.90
2019-05-19T05:40:51.405Z,6.80
2019-05-19T05:43:21.697Z,7.10
2019-05-19T05:45:51.920Z,6.23
2019-05-19T05:48:22.225Z,6.03
2019-05-19T05:50:52.414Z,6.73
2019-05-19T05:53:22.645Z,7.50
2019-05-19T05:55:52.843Z,6.70
2019-05-19T05:58:23.070Z,7.47
2019-05-19T06:00:53.268Z,7.37
2019-05-19T06:03:23.475Z,7.30
2019-05-19T06:05:53.749Z,6.45
2019-05-19T06:08:23.948Z,5.73
2019-05-19T06:10:54.143Z,5.90
2019-05-19T06:13:24.361Z,5.57
2019-05-19T06:15:54.548Z,6.47
2019-05-19T06:18:24.758Z,5.35
2019-05-19T06:20:55.001Z,5.50
2019-05-19T06:23:25.192Z,5.17
2019-05-19T06:25:55.405Z,5.07
2019-05-19T06:28:25.612Z,4.70
2019-05-19T06:30:55.835Z,4.13
2019-05-19T06:33:26.056Z,4.80
2019-05-19T06:35:56.258Z,4.60
2019-05-19T06:38:26.467Z,4.03
2019-05-19T06:40:56.668Z,4.30
2019-05-19T06:43:26.891Z,3.70
2019-05-19T06:45:57.109Z,3.63
2019-05-19T06:48:27.332Z,3.83
2019-05-19T06:50:57.527Z,3.30
2019-05-19T06:53:27.749Z,4.63
2019-05-19T06:55:57.989Z,3.60
2019-05-19T06:58:28.199Z,3.30
2019-05-19T07:00:59.251Z,2.70
2019-05-19T07:03:29.591Z,2.80
2019-05-19T07:05:59.788Z,2.90
2019-05-19T07:08:30.032Z,3.02
2019-05-19T07:11:00.225Z,2.50
2019-05-19T07:13:30.460Z,2.50
2019-05-19T07:16:00.664Z,2.50
2019-05-19T07:18:30.905Z,2.42
2019-05-19T07:21:01.124Z,2.30
2019-05-19T07:23:31.367Z,2.20
2019-05-19T07:26:01.581Z,2.20
2019-05-19T07:28:31.863Z,2.53
2019-05-19T07:31:02.405Z,2.27
2019-05-19T07:33:32.775Z,2.47
2019-05-19T07:36:02.992Z,2.43
2019-05-19T07:38:33.215Z,2.50
2019-05-19T07:41:03.605Z,2.50
2019-05-19T07:43:33.751Z,2.77
2019-05-19T07:46:04.116Z,2.23
2019-05-19T07:48:34.327Z,2.33
2019-05-19T07:51:04.567Z,2.63
2019-05-19T07:53:42.526Z,3.00
2019-05-19T07:56:06.796Z,9.63
2019-05-19T07:58:37.093Z,10.57
2019-05-19T08:01:07.298Z,11.37
2019-05-19T08:03:37.532Z,11.53
2019-05-19T08:06:07.822Z,10.37
2019-05-19T08:08:38.117Z,11.10
2019-05-19T08:11:08.404Z,11.30
2019-05-19T08:13:38.655Z,13.13
2019-05-19T08:16:08.865Z,13.25
2019-05-19T08:18:39.080Z,11.80
2019-05-19T08:21:09.309Z,10.20
2019-05-19T08:23:39.554Z,11.90
2019-05-19T08:26:09.788Z,10.23
2019-05-19T08:28:39.991Z,9.73
2019-05-19T08:31:10.210Z,8.83
2019-05-19T08:33:40.473Z,8.83
2019-05-19T08:36:10.703Z,8.53
2019-05-19T08:38:40.919Z,7.03
2019-05-19T08:41:11.185Z,7.30
2019-05-19T08:43:41.433Z,7.07
2019-05-19T08:46:11.658Z,8.37
2019-05-19T08:48:41.892Z,10.93
2019-05-19T08:51:12.100Z,11.43
2019-05-19T08:53:42.339Z,10.97
2019-05-19T08:56:12.570Z,10.37
2019-05-19T08:58:42.802Z,10.50
2019-05-19T09:01:13.029Z,10.30
2019-05-19T09:03:43.247Z,8.77
2019-05-19T09:06:13.454Z,7.70
2019-05-19T09:08:43.636Z,7.83
2019-05-19T09:11:13.882Z,7.60
2019-05-19T09:13:44.228Z,6.33
2019-05-19T09:16:14.450Z,6.23
2019-05-19T09:18:44.659Z,6.00
2019-05-19T09:21:14.865Z,4.90
2019-05-19T09:23:45.166Z,7.40
2019-05-19T09:26:15.380Z,8.23
2019-05-19T09:28:45.611Z,9.70
2019-05-19T09:31:15.914Z,9.80
2019-05-19T09:33:46.211Z,8.00
2019-05-19T09:36:16.430Z,7.10
2019-05-19T09:38:46.754Z,7.10
2019-05-19T09:41:16.977Z,7.40
2019-05-19T09:43:47.178Z,7.20
2019-05-19T09:46:17.400Z,7.73
2019-05-19T09:48:49.262Z,6.90
2019-05-19T09:51:19.482Z,6.87
2019-05-19T09:53:49.786Z,6.00
2019-05-19T09:56:21.021Z,5.48
2019-05-19T09:58:51.217Z,5.70
2019-05-19T10:01:21.437Z,5.87
2019-05-19T10:03:51.669Z,5.90
2019-05-19T10:06:21.913Z,5.83
2019-05-19T10:08:55.088Z,5.53
2019-05-19T10:12:04.320Z,7.28
2019-05-19T10:14:34.584Z,6.80
2019-05-19T10:17:04.880Z,6.00
2019-05-19T10:19:35.088Z,5.00
2019-05-19T10:22:05.655Z,5.57
2019-05-19T10:24:35.840Z,5.17
2019-05-19T10:27:06.306Z,4.30
2019-05-19T10:29:36.647Z,6.30
2019-05-19T10:32:07.013Z,7.27
2019-05-19T10:34:38.258Z,7.47
2019-05-19T10:37:08.465Z,7.23
2019-05-19T10:39:39.535Z,8.60
2019-05-19T10:42:09.850Z,8.17
2019-05-19T10:44:40.057Z,8.65
2019-05-19T10:47:10.298Z,7.20
2019-05-19T10:49:42.984Z,6.73
2019-05-19T10:52:12.413Z,7.17
2019-05-19T10:54:42.611Z,7.50
2019-05-19T10:57:12.860Z,8.30
2019-05-19T10:59:43.077Z,7.80
2019-05-19T11:02:14.945Z,7.27
2019-05-19T11:04:45.137Z,6.27
2019-05-19T11:07:15.375Z,5.90
2019-05-19T11:09:45.621Z,4.30
2019-05-19T11:12:29.167Z,4.40
2019-05-19T11:14:59.385Z,4.13
2019-05-19T11:17:29.679Z,4.80
2019-05-19T11:19:59.924Z,4.43
2019-05-19T11:22:30.205Z,4.60
2019-05-19T11:25:00.471Z,4.93
2019-05-19T11:27:30.704Z,4.60
2019-05-19T11:30:00.941Z,3.87
2019-05-19T11:32:31.138Z,8.00
2019-05-19T11:35:01.345Z,7.80
2019-05-19T11:37:31.597Z,5.87
2019-05-19T11:40:01.875Z,5.77
2019-05-19T11:42:32.089Z,5.87
2019-05-19T11:45:02.307Z,5.30
2019-05-19T11:47:32.551Z,5.08
2019-05-19T11:50:02.842Z,5.10
2019-05-19T11:52:33.047Z,4.12
2019-05-19T11:55:03.834Z,4.13
2019-05-19T11:57:34.055Z,3.62
2019-05-19T12:00:06.659Z,4.30
2019-05-19T12:02:36.872Z,3.67
2019-05-19T12:05:07.165Z,3.30
2019-05-19T12:07:37.381Z,3.10
2019-05-19T12:10:08.509Z,2.73
2019-05-19T12:12:38.759Z,2.50
2019-05-19T12:15:10.452Z,2.60
2019-05-19T12:17:40.702Z,2.53
2019-05-19T12:20:11.146Z,2.13
2019-05-19T12:22:41.390Z,1.70
2019-05-19T12:25:11.747Z,2.10
2019-05-19T12:27:42.088Z,1.73
2019-05-19T12:30:17.011Z,3.03
2019-05-19T12:32:47.339Z,2.63
2019-05-19T12:35:18.031Z,2.47
2019-05-19T12:37:48.277Z,1.97
2019-05-19T12:40:22.309Z,2.30
2019-05-19T12:42:50.617Z,4.40
2019-05-19T12:45:21.639Z,3.37
2019-05-19T12:47:52.549Z,3.93
2019-05-19T12:50:22.917Z,3.30
2019-05-19T12:52:53.148Z,3.13
2019-05-19T12:55:23.355Z,2.73
2019-05-19T12:57:53.559Z,2.60
2019-05-19T13:00:23.936Z,2.43
2019-05-19T13:02:54.152Z,2.80
2019-05-19T13:05:24.457Z,2.43
2019-05-19T13:07:54.691Z,3.50
2019-05-19T13:10:24.913Z,3.77
2019-05-19T13:12:55.217Z,3.50
2019-05-19T13:15:25.483Z,2.85
2019-05-19T13:17:55.717Z,3.30
2019-05-19T13:20:25.915Z,4.10
2019-05-19T13:22:56.235Z,4.07
2019-05-19T13:25:26.478Z,3.60
2019-05-19T13:27:56.750Z,3.47
2019-05-19T13:30:27.162Z,3.43
2019-05-19T13:32:58.070Z,4.30
2019-05-19T13:35:28.300Z,4.53
2019-05-19T13:37:58.607Z,6.07
2019-05-19T13:40:28.838Z,5.10
2019-05-19T13:42:59.080Z,5.60
2019-05-19T13:45:29.284Z,5.50
2019-05-19T13:47:59.524Z,4.90
2019-05-19T13:50:29.741Z,5.50
2019-05-19T13:52:59.994Z,5.40
2019-05-19T13:55:30.215Z,5.23
2019-05-19T13:58:03.441Z,4.60
2019-05-19T14:00:32.498Z,4.86
2019-05-19T14:03:02.794Z,4.83
2019-05-19T14:05:33.039Z,6.10
2019-05-19T14:08:03.286Z,5.33
2019-05-19T14:10:33.504Z,4.60
2019-05-19T14:13:03.751Z,4.63
2019-05-19T14:15:34.040Z,3.67
2019-05-19T14:18:04.514Z,3.87
2019-05-19T14:20:34.755Z,3.37
2019-05-19T14:23:04.945Z,3.10
2019-05-19T14:25:35.191Z,3.37
2019-05-19T14:28:05.468Z,3.13
2019-05-19T14:30:35.772Z,2.63
2019-05-19T14:33:06.048Z,2.20
2019-05-19T14:35:36.264Z,5.20
2019-05-19T14:38:06.469Z,4.53
2019-05-19T14:40:36.730Z,4.23
2019-05-19T14:43:07.003Z,4.30
2019-05-19T14:45:37.246Z,4.80
2019-05-19T14:48:07.502Z,3.72
2019-05-19T14:50:37.746Z,4.33
2019-05-19T14:53:07.978Z,3.30
2019-05-19T14:55:38.331Z,3.25
2019-05-19T14:58:08.607Z,3.33
2019-05-19T15:00:38.835Z,3.52
2019-05-19T15:03:09.064Z,2.97
2019-05-19T15:05:39.284Z,2.72
2019-05-19T15:08:09.553Z,4.07
2019-05-19T15:10:39.762Z,3.67
2019-05-19T15:13:10.027Z,4.10
2019-05-19T15:15:40.202Z,4.47
2019-05-19T15:18:10.433Z,4.03
2019-05-19T15:20:40.650Z,4.03
2019-05-19T15:23:10.867Z,4.50
2019-05-19T15:25:41.261Z,4.63
2019-05-19T15:28:11.483Z,4.83
2019-05-19T15:30:41.691Z,4.27
2019-05-19T15:33:11.966Z,4.40
2019-05-19T15:35:42.192Z,4.80
2019-05-19T15:38:12.419Z,5.77
2019-05-19T15:40:42.626Z,5.43
2019-05-19T15:43:12.835Z,5.33
2019-05-19T15:45:43.034Z,4.73
2019-05-19T15:48:13.243Z,4.80
2019-05-19T15:50:43.493Z,5.40
2019-05-19T15:53:13.693Z,5.00
2019-05-19T15:55:43.955Z,4.70
2019-05-19T15:58:16.885Z,4.93
2019-05-19T16:00:46.144Z,4.70
2019-05-19T16:03:16.339Z,5.50
2019-05-19T16:05:46.575Z,5.37
2019-05-19T16:08:16.795Z,5.37
2019-05-19T16:10:47.003Z,5.40
2019-05-19T16:13:17.244Z,5.13
2019-05-19T16:15:47.443Z,5.72
2019-05-19T16:18:17.641Z,5.20
2019-05-19T16:20:47.860Z,4.80
2019-05-19T16:23:18.106Z,4.27
2019-05-19T16:25:48.337Z,5.60
2019-05-19T16:28:29.927Z,5.57
2019-05-19T16:30:50.472Z,5.25
2019-05-19T16:33:21.533Z,5.33
2019-05-19T16:35:51.769Z,4.67
2019-05-19T16:38:21.965Z,4.73
2019-05-19T16:40:52.211Z,3.67
2019-05-19T16:43:22.431Z,4.30
2019-05-19T16:45:52.657Z,3.50
2019-05-19T16:48:23.453Z,3.37
2019-05-19T16:50:53.812Z,3.23
2019-05-19T16:53:24.010Z,3.30
2019-05-19T16:55:54.241Z,4.57
2019-05-19T16:58:24.458Z,3.90
2019-05-19T17:00:54.682Z,4.20
2019-05-19T17:03:24.879Z,3.83
2019-05-19T17:05:55.118Z,3.97
2019-05-19T17:08:25.295Z,4.07
2019-05-19T17:10:55.514Z,4.25
2019-05-19T17:13:25.731Z,3.58
2019-05-19T17:15:55.931Z,3.43
2019-05-19T17:18:26.137Z,3.72
2019-05-19T17:20:56.342Z,4.43
2019-05-19T17:23:26.578Z,3.50
2019-05-19T17:25:56.816Z,3.33
2019-05-19T17:28:27.350Z,3.53
2019-05-19T17:30:57.579Z,3.00
2019-05-19T17:33:27.850Z,3.00
2019-05-19T17:35:58.066Z,2.90
2019-05-19T17:38:28.279Z,2.10
2019-05-19T17:40:58.490Z,2.00
2019-05-19T17:43:28.738Z,2.70
2019-05-19T17:45:59.020Z,2.20
2019-05-19T17:48:29.237Z,2.23
2019-05-19T17:50:59.453Z,5.13
2019-05-19T17:53:29.763Z,4.97
2019-05-19T17:56:00.497Z,5.70
2019-05-19T17:58:32.070Z,5.27
2019-05-19T18:01:02.291Z,5.43
2019-05-19T18:03:33.129Z,5.83
2019-05-19T18:06:03.326Z,6.50
2019-05-19T18:08:33.609Z,5.27
2019-05-19T18:11:03.802Z,5.97
2019-05-19T18:13:34.078Z,5.57
2019-05-19T18:16:04.488Z,6.50
2019-05-19T18:18:34.728Z,5.67
2019-05-19T18:21:05.097Z,5.80
2019-05-19T18:23:35.332Z,6.03
2019-05-19T18:26:07.308Z,6.27
2019-05-19T18:28:37.576Z,5.47
2019-05-19T18:31:07.774Z,5.90
2019-05-19T18:33:37.993Z,5.40
2019-05-19T18:36:08.238Z,5.57
2019-05-19T18:38:38.485Z,5.00
2019-05-19T18:41:08.713Z,5.75
2019-05-19T18:43:38.948Z,7.57
2019-05-19T18:46:09.153Z,7.80
2019-05-19T18:48:39.437Z,7.93
2019-05-19T18:51:09.634Z,7.00
2019-05-19T18:53:39.888Z,7.33
2019-05-19T18:56:10.132Z,8.07
2019-05-19T18:58:40.479Z,7.57
2019-05-19T19:01:10.797Z,8.53
2019-05-19T19:03:41.193Z,9.20
2019-05-19T19:06:11.670Z,8.97
2019-05-19T19:08:41.899Z,7.23
2019-05-19T19:11:12.144Z,7.30
2019-05-19T19:13:42.858Z,8.33
2019-05-19T19:16:13.127Z,7.50
2019-05-19T19:18:43.326Z,7.87
2019-05-19T19:21:13.574Z,8.10
2019-05-19T19:23:43.844Z,8.70
2019-05-19T19:26:14.199Z,9.03
2019-05-19T19:28:44.416Z,8.60
2019-05-19T19:31:14.676Z,8.03
2019-05-19T19:33:44.917Z,8.33
2019-05-19T19:36:15.200Z,9.00
2019-05-19T19:38:45.484Z,8.30
2019-05-19T19:41:15.714Z,7.97
2019-05-19T19:43:45.929Z,8.30
2019-05-19T19:46:16.267Z,8.13
2019-05-19T19:48:46.503Z,8.27
2019-05-19T19:51:16.774Z,7.13
2019-05-19T19:53:46.969Z,7.23
2019-05-19T19:56:17.200Z,6.90
2019-05-19T19:58:47.463Z,7.60
2019-05-19T20:01:18.243Z,7.37
2019-05-19T20:03:48.466Z,8.13
2019-05-19T20:06:18.716Z,6.53
2019-05-19T20:08:48.985Z,6.93
2019-05-19T20:11:19.251Z,6.03
2019-05-19T20:13:49.454Z,6.73
2019-05-19T20:16:19.714Z,6.20
2019-05-19T20:18:49.918Z,6.67
2019-05-19T20:21:20.213Z,6.83
2019-05-19T20:23:50.470Z,6.50
2019-05-19T20:26:21.873Z,7.23
2019-05-19T20:28:52.121Z,7.40
2019-05-19T20:31:22.410Z,7.10
2019-05-19T20:33:52.730Z,7.23
2019-05-19T20:36:22.952Z,6.30
2019-05-19T20:38:53.165Z,8.00
2019-05-19T20:41:23.403Z,7.90
2019-05-19T20:43:53.603Z,6.60
2019-05-19T20:46:23.835Z,8.07
2019-05-19T20:48:54.072Z,7.03
2019-05-19T20:51:24.334Z,6.97
2019-05-19T20:53:54.540Z,6.97
2019-05-19T20:56:25.725Z,7.37
2019-05-19T20:58:55.950Z,6.87
2019-05-19T21:01:26.205Z,6.77
2019-05-19T21:03:56.424Z,7.10
2019-05-19T21:06:26.672Z,7.25
2019-05-19T21:08:56.895Z,7.80
2019-05-19T21:11:27.197Z,8.63
2019-05-19T21:13:57.430Z,7.70
2019-05-19T21:16:27.677Z,7.50
2019-05-19T21:18:57.961Z,7.53
2019-05-19T21:21:28.179Z,7.80
2019-05-19T21:23:58.495Z,8.07
2019-05-19T21:26:28.708Z,7.33
2019-05-19T21:28:58.933Z,8.50
2019-05-19T21:31:29.238Z,8.47
2019-05-19T21:33:59.799Z,8.03
2019-05-19T21:36:30.677Z,7.73
2019-05-19T21:39:00.910Z,7.73
2019-05-19T21:41:31.134Z,7.83
2019-05-19T21:44:03.504Z,7.00
2019-05-19T21:46:33.724Z,7.47
2019-05-19T21:49:03.926Z,6.70
2019-05-19T21:51:34.122Z,6.78
2019-05-19T21:54:04.930Z,7.10
2019-05-19T21:56:35.130Z,6.97
2019-05-19T21:59:05.445Z,6.13
2019-05-19T22:01:35.680Z,6.27
2019-05-19T22:04:05.991Z,6.62
2019-05-19T22:06:37.848Z,5.90
2019-05-19T22:09:08.075Z,6.30
2019-05-19T22:11:38.298Z,5.97
2019-05-19T22:14:08.513Z,5.70
2019-05-19T22:16:38.758Z,6.00
2019-05-19T22:19:09.030Z,5.85
2019-05-19T22:21:39.268Z,6.10
2019-05-19T22:24:09.491Z,6.30
2019-05-19T22:26:39.722Z,5.87
2019-05-19T22:29:09.932Z,7.12
2019-05-19T22:31:40.196Z,6.93
2019-05-19T22:34:10.490Z,6.40
2019-05-19T22:36:40.744Z,5.90
2019-05-19T22:39:10.955Z,5.87
2019-05-19T22:41:41.209Z,6.43
2019-05-19T22:44:11.401Z,7.30
2019-05-19T22:46:41.658Z,7.33
2019-05-19T22:49:11.939Z,6.67
2019-05-19T22:51:42.159Z,7.37
2019-05-19T22:54:12.367Z,7.23
2019-05-19T22:56:42.584Z,7.43
2019-05-19T22:59:19.793Z,6.90
2019-05-19T23:01:51.761Z,6.53
2019-05-19T23:04:16.675Z,7.10
2019-05-19T23:06:46.893Z,7.53
2019-05-19T23:09:17.101Z,7.10
2019-05-19T23:11:47.361Z,7.30
2019-05-19T23:14:17.565Z,7.47
2019-05-19T23:16:47.791Z,7.30
2019-05-19T23:19:18.022Z,6.75
2019-05-19T23:21:48.275Z,7.33
2019-05-19T23:24:18.470Z,8.07
2019-05-19T23:26:48.684Z,7.87
2019-05-19T23:29:18.909Z,7.97
2019-05-19T23:31:49.136Z,9.03
2019-05-19T23:34:19.435Z,8.40
2019-05-19T23:36:49.705Z,8.73
2019-05-19T23:39:19.941Z,9.07
2019-05-19T23:41:50.169Z,9.33
2019-05-19T23:44:20.430Z,8.17
2019-05-19T23:46:50.644Z,8.67
2019-05-19T23:49:22.000Z,7.17
2019-05-19T23:51:52.239Z,8.27
2019-05-19T23:54:22.501Z,7.43
2019-05-19T23:56:52.721Z,7.40
2019-05-19T23:59:22.961Z,8.17
